sensor_id;sensor_type;location;lat;lon;timestamp;P1;durP1;ratioP1;P2;durP2;ratioP2
16890;SDS011;8562;52.246;20.966;2023-05-21T00:00:03;4.03;;;2.23;;
16890;SDS011;8562;52.246;20.966;2023-05-21T00:02:37;7.87;;;2.90;;
16890;SDS011;8562;52.246;20.966;2023-05-21T00:05:03;3.87;;;2.20;;
16890;SDS011;8562;52.246;20.966;2023-05-21T00:07:28;4.63;;;2.70;;
16890;SDS011;8562;52.246;20.966;2023-05-21T00:09:55;3.57;;;2.47;;
16890;SDS011;8562;52.246;20.966;2023-05-21T00:12:21;3.90;;;2.27;;
16890;SDS011;8562;52.246;20.966;2023-05-21T00:14:46;2.60;;;2.20;;
16890;SDS011;8562;52.246;20.966;2023-05-21T00:17:11;4.23;;;2.50;;
16890;SDS011;8562;52.246;20.966;2023-05-21T00:19:36;4.67;;;2.73;;
16890;SDS011;8562;52.246;20.966;2023-05-21T00:22:04;3.57;;;2.40;;
16890;SDS011;8562;52.246;20.966;2023-05-21T00:24:29;2.90;;;2.27;;
16890;SDS011;8562;52.246;20.966;2023-05-21T00:26:54;3.80;;;2.63;;
16890;SDS011;8562;52.246;20.966;2023-05-21T00:29:20;3.77;;;2.87;;
16890;SDS011;8562;52.246;20.966;2023-05-21T00:31:46;3.50;;;2.37;;
16890;SDS011;8562;52.246;20.966;2023-05-21T00:34:12;2.60;;;2.40;;
16890;SDS011;8562;52.246;20.966;2023-05-21T00:36:38;2.57;;;2.10;;
16890;SDS011;8562;52.246;20.966;2023-05-21T00:39:04;4.27;;;2.70;;
16890;SDS011;8562;52.246;20.966;2023-05-21T00:41:29;4.60;;;2.70;;
16890;SDS011;8562;52.246;20.966;2023-05-21T00:43:55;3.03;;;2.20;;
16890;SDS011;8562;52.246;20.966;2023-05-21T00:46:21;2.57;;;2.37;;
16890;SDS011;8562;52.246;20.966;2023-05-21T00:48:46;3.97;;;2.50;;
16890;SDS011;8562;52.246;20.966;2023-05-21T00:51:13;3.57;;;2.20;;
16890;SDS011;8562;52.246;20.966;2023-05-21T00:53:39;3.27;;;2.77;;
16890;SDS011;8562;52.246;20.966;2023-05-21T00:56:04;5.67;;;2.87;;
16890;SDS011;8562;52.246;20.966;2023-05-21T00:58:30;3.30;;;2.67;;
16890;SDS011;8562;52.246;20.966;2023-05-21T01:00:57;5.37;;;2.37;;
16890;SDS011;8562;52.246;20.966;2023-05-21T01:03:22;3.20;;;2.10;;
16890;SDS011;8562;52.246;20.966;2023-05-21T01:05:49;3.60;;;2.67;;
16890;SDS011;8562;52.246;20.966;2023-05-21T01:08:15;6.33;;;2.73;;
16890;SDS011;8562;52.246;20.966;2023-05-21T01:10:40;2.17;;;1.93;;
16890;SDS011;8562;52.246;20.966;2023-05-21T01:13:05;2.70;;;1.93;;
16890;SDS011;8562;52.246;20.966;2023-05-21T01:15:31;4.53;;;2.73;;
16890;SDS011;8562;52.246;20.966;2023-05-21T01:17:56;3.60;;;2.53;;
16890;SDS011;8562;52.246;20.966;2023-05-21T01:20:22;2.60;;;2.40;;
16890;SDS011;8562;52.246;20.966;2023-05-21T01:22:50;2.37;;;2.17;;
16890;SDS011;8562;52.246;20.966;2023-05-21T01:25:15;5.07;;;2.73;;
16890;SDS011;8562;52.246;20.966;2023-05-21T01:27:41;4.17;;;2.10;;
16890;SDS011;8562;52.246;20.966;2023-05-21T01:30:06;3.13;;;2.30;;
16890;SDS011;8562;52.246;20.966;2023-05-21T01:32:51;6.77;;;2.60;;
16890;SDS011;8562;52.246;20.966;2023-05-21T01:35:25;3.30;;;2.67;;
16890;SDS011;8562;52.246;20.966;2023-05-21T01:37:52;2.80;;;2.43;;
16890;SDS011;8562;52.246;20.966;2023-05-21T01:40:22;3.87;;;2.77;;
16890;SDS011;8562;52.246;20.966;2023-05-21T01:42:48;2.70;;;2.40;;
16890;SDS011;8562;52.246;20.966;2023-05-21T01:45:14;3.30;;;2.10;;
16890;SDS011;8562;52.246;20.966;2023-05-21T01:47:40;4.93;;;2.67;;
16890;SDS011;8562;52.246;20.966;2023-05-21T01:50:06;4.37;;;2.37;;
16890;SDS011;8562;52.246;20.966;2023-05-21T01:52:31;2.37;;;2.17;;
16890;SDS011;8562;52.246;20.966;2023-05-21T01:54:56;5.17;;;2.13;;
16890;SDS011;8562;52.246;20.966;2023-05-21T01:57:22;3.77;;;2.60;;
16890;SDS011;8562;52.246;20.966;2023-05-21T01:59:47;5.97;;;2.53;;
16890;SDS011;8562;52.246;20.966;2023-05-21T02:02:13;3.00;;;2.70;;
16890;SDS011;8562;52.246;20.966;2023-05-21T02:04:38;3.33;;;2.13;;
16890;SDS011;8562;52.246;20.966;2023-05-21T02:07:08;3.10;;;2.37;;
16890;SDS011;8562;52.246;20.966;2023-05-21T02:09:34;2.90;;;2.23;;
16890;SDS011;8562;52.246;20.966;2023-05-21T02:11:59;3.20;;;2.50;;
16890;SDS011;8562;52.246;20.966;2023-05-21T02:14:25;2.80;;;2.23;;
16890;SDS011;8562;52.246;20.966;2023-05-21T02:16:50;3.77;;;2.57;;
16890;SDS011;8562;52.246;20.966;2023-05-21T02:19:16;5.43;;;2.67;;
16890;SDS011;8562;52.246;20.966;2023-05-21T02:21:42;4.10;;;2.30;;
16890;SDS011;8562;52.246;20.966;2023-05-21T02:24:07;5.00;;;2.60;;
16890;SDS011;8562;52.246;20.966;2023-05-21T02:26:32;3.03;;;2.33;;
16890;SDS011;8562;52.246;20.966;2023-05-21T02:28:58;2.47;;;2.00;;
16890;SDS011;8562;52.246;20.966;2023-05-21T02:31:23;3.03;;;2.57;;
16890;SDS011;8562;52.246;20.966;2023-05-21T02:33:48;6.53;;;2.53;;
16890;SDS011;8562;52.246;20.966;2023-05-21T02:36:14;3.37;;;2.43;;
16890;SDS011;8562;52.246;20.966;2023-05-21T02:38:39;3.90;;;1.90;;
16890;SDS011;8562;52.246;20.966;2023-05-21T02:41:11;2.77;;;1.87;;
16890;SDS011;8562;52.246;20.966;2023-05-21T02:43:36;2.13;;;1.80;;
16890;SDS011;8562;52.246;20.966;2023-05-21T02:46:03;4.70;;;2.17;;
16890;SDS011;8562;52.246;20.966;2023-05-21T02:48:29;3.47;;;2.30;;
16890;SDS011;8562;52.246;20.966;2023-05-21T02:50:54;3.40;;;2.00;;
16890;SDS011;8562;52.246;20.966;2023-05-21T02:53:19;3.30;;;2.13;;
16890;SDS011;8562;52.246;20.966;2023-05-21T02:55:45;2.23;;;2.03;;
16890;SDS011;8562;52.246;20.966;2023-05-21T02:58:10;4.27;;;1.93;;
16890;SDS011;8562;52.246;20.966;2023-05-21T03:00:37;2.43;;;2.20;;
16890;SDS011;8562;52.246;20.966;2023-05-21T03:03:03;3.47;;;1.90;;
16890;SDS011;8562;52.246;20.966;2023-05-21T03:05:28;3.33;;;2.47;;
16890;SDS011;8562;52.246;20.966;2023-05-21T03:07:53;3.37;;;2.20;;
16890;SDS011;8562;52.246;20.966;2023-05-21T03:10:19;3.63;;;2.27;;
16890;SDS011;8562;52.246;20.966;2023-05-21T03:12:44;3.83;;;2.73;;
16890;SDS011;8562;52.246;20.966;2023-05-21T03:15:10;7.37;;;2.07;;
16890;SDS011;8562;52.246;20.966;2023-05-21T03:17:38;3.20;;;2.23;;
16890;SDS011;8562;52.246;20.966;2023-05-21T03:20:06;3.27;;;2.97;;
16890;SDS011;8562;52.246;20.966;2023-05-21T03:22:33;2.33;;;2.07;;
16890;SDS011;8562;52.246;20.966;2023-05-21T03:24:58;5.03;;;2.47;;
16890;SDS011;8562;52.246;20.966;2023-05-21T03:27:24;2.47;;;1.97;;
16890;SDS011;8562;52.246;20.966;2023-05-21T03:29:50;6.60;;;2.40;;
16890;SDS011;8562;52.246;20.966;2023-05-21T03:32:16;8.23;;;2.73;;
16890;SDS011;8562;52.246;20.966;2023-05-21T03:34:42;3.70;;;2.70;;
16890;SDS011;8562;52.246;20.966;2023-05-21T03:37:08;3.03;;;2.33;;
16890;SDS011;8562;52.246;20.966;2023-05-21T03:39:33;4.47;;;2.80;;
16890;SDS011;8562;52.246;20.966;2023-05-21T03:41:59;3.10;;;2.60;;
16890;SDS011;8562;52.246;20.966;2023-05-21T03:44:34;3.17;;;2.30;;
16890;SDS011;8562;52.246;20.966;2023-05-21T03:47:18;10.13;;;2.50;;
16890;SDS011;8562;52.246;20.966;2023-05-21T03:49:43;3.03;;;2.30;;
16890;SDS011;8562;52.246;20.966;2023-05-21T03:52:09;6.43;;;2.47;;
16890;SDS011;8562;52.246;20.966;2023-05-21T03:54:34;3.63;;;2.77;;
16890;SDS011;8562;52.246;20.966;2023-05-21T03:57:04;4.27;;;2.90;;
16890;SDS011;8562;52.246;20.966;2023-05-21T03:59:29;3.00;;;2.33;;
16890;SDS011;8562;52.246;20.966;2023-05-21T04:01:55;3.03;;;2.37;;
16890;SDS011;8562;52.246;20.966;2023-05-21T04:04:20;4.00;;;2.73;;
16890;SDS011;8562;52.246;20.966;2023-05-21T04:06:46;4.83;;;2.47;;
16890;SDS011;8562;52.246;20.966;2023-05-21T04:09:12;3.23;;;2.10;;
16890;SDS011;8562;52.246;20.966;2023-05-21T04:11:37;3.70;;;2.17;;
16890;SDS011;8562;52.246;20.966;2023-05-21T04:14:02;3.80;;;2.67;;
16890;SDS011;8562;52.246;20.966;2023-05-21T04:16:28;3.03;;;2.80;;
16890;SDS011;8562;52.246;20.966;2023-05-21T04:18:53;2.93;;;2.50;;
16890;SDS011;8562;52.246;20.966;2023-05-21T04:21:24;3.60;;;2.93;;
16890;SDS011;8562;52.246;20.966;2023-05-21T04:23:50;4.30;;;1.90;;
16890;SDS011;8562;52.246;20.966;2023-05-21T04:26:37;6.50;;;2.67;;
16890;SDS011;8562;52.246;20.966;2023-05-21T04:29:06;3.67;;;2.63;;
16890;SDS011;8562;52.246;20.966;2023-05-21T04:31:31;4.23;;;2.53;;
16890;SDS011;8562;52.246;20.966;2023-05-21T04:33:57;2.97;;;2.20;;
16890;SDS011;8562;52.246;20.966;2023-05-21T04:36:23;3.70;;;2.60;;
16890;SDS011;8562;52.246;20.966;2023-05-21T04:38:48;4.57;;;2.10;;
16890;SDS011;8562;52.246;20.966;2023-05-21T04:41:14;3.30;;;2.10;;
16890;SDS011;8562;52.246;20.966;2023-05-21T04:43:39;2.60;;;1.60;;
16890;SDS011;8562;52.246;20.966;2023-05-21T04:46:08;2.80;;;2.40;;
16890;SDS011;8562;52.246;20.966;2023-05-21T04:48:33;3.63;;;2.03;;
16890;SDS011;8562;52.246;20.966;2023-05-21T04:50:59;3.13;;;1.90;;
16890;SDS011;8562;52.246;20.966;2023-05-21T04:53:24;2.33;;;1.80;;
16890;SDS011;8562;52.246;20.966;2023-05-21T04:55:50;2.37;;;1.80;;
16890;SDS011;8562;52.246;20.966;2023-05-21T04:58:15;2.80;;;2.37;;
16890;SDS011;8562;52.246;20.966;2023-05-21T05:00:43;2.70;;;1.90;;
16890;SDS011;8562;52.246;20.966;2023-05-21T05:03:11;6.30;;;2.07;;
16890;SDS011;8562;52.246;20.966;2023-05-21T05:05:36;2.63;;;2.10;;
16890;SDS011;8562;52.246;20.966;2023-05-21T05:08:01;1.80;;;1.70;;
16890;SDS011;8562;52.246;20.966;2023-05-21T05:10:28;3.43;;;2.50;;
16890;SDS011;8562;52.246;20.966;2023-05-21T05:12:54;2.17;;;1.83;;
16890;SDS011;8562;52.246;20.966;2023-05-21T05:15:19;3.63;;;2.00;;
16890;SDS011;8562;52.246;20.966;2023-05-21T05:17:45;2.73;;;2.23;;
16890;SDS011;8562;52.246;20.966;2023-05-21T05:20:14;1.87;;;1.77;;
16890;SDS011;8562;52.246;20.966;2023-05-21T05:22:40;3.90;;;2.00;;
16890;SDS011;8562;52.246;20.966;2023-05-21T05:25:05;2.83;;;2.03;;
16890;SDS011;8562;52.246;20.966;2023-05-21T05:27:31;6.10;;;1.90;;
16890;SDS011;8562;52.246;20.966;2023-05-21T05:29:57;2.40;;;1.97;;
16890;SDS011;8562;52.246;20.966;2023-05-21T05:32:22;2.67;;;2.23;;
16890;SDS011;8562;52.246;20.966;2023-05-21T05:34:47;2.47;;;2.00;;
16890;SDS011;8562;52.246;20.966;2023-05-21T05:37:13;3.13;;;1.80;;
16890;SDS011;8562;52.246;20.966;2023-05-21T05:39:39;6.33;;;1.80;;
16890;SDS011;8562;52.246;20.966;2023-05-21T05:42:04;2.37;;;1.83;;
16890;SDS011;8562;52.246;20.966;2023-05-21T05:44:29;3.97;;;1.93;;
16890;SDS011;8562;52.246;20.966;2023-05-21T05:46:56;2.43;;;1.73;;
16890;SDS011;8562;52.246;20.966;2023-05-21T05:49:21;2.60;;;1.73;;
16890;SDS011;8562;52.246;20.966;2023-05-21T05:51:47;5.63;;;1.83;;
16890;SDS011;8562;52.246;20.966;2023-05-21T05:54:12;6.40;;;1.83;;
16890;SDS011;8562;52.246;20.966;2023-05-21T05:56:37;2.17;;;1.57;;
16890;SDS011;8562;52.246;20.966;2023-05-21T05:59:04;1.57;;;1.43;;
16890;SDS011;8562;52.246;20.966;2023-05-21T06:01:32;4.50;;;1.73;;
16890;SDS011;8562;52.246;20.966;2023-05-21T06:03:58;1.60;;;1.47;;
16890;SDS011;8562;52.246;20.966;2023-05-21T06:06:23;4.00;;;1.80;;
16890;SDS011;8562;52.246;20.966;2023-05-21T06:08:49;1.90;;;1.43;;
16890;SDS011;8562;52.246;20.966;2023-05-21T06:11:14;2.10;;;1.80;;
16890;SDS011;8562;52.246;20.966;2023-05-21T06:13:41;1.73;;;1.60;;
16890;SDS011;8562;52.246;20.966;2023-05-21T06:16:07;4.50;;;1.60;;
16890;SDS011;8562;52.246;20.966;2023-05-21T06:18:34;1.93;;;1.70;;
16890;SDS011;8562;52.246;20.966;2023-05-21T06:20:59;2.63;;;1.70;;
16890;SDS011;8562;52.246;20.966;2023-05-21T06:23:26;6.17;;;1.73;;
16890;SDS011;8562;52.246;20.966;2023-05-21T06:25:51;4.10;;;1.93;;
16890;SDS011;8562;52.246;20.966;2023-05-21T06:28:18;4.20;;;1.70;;
16890;SDS011;8562;52.246;20.966;2023-05-21T06:30:43;2.10;;;1.67;;
16890;SDS011;8562;52.246;20.966;2023-05-21T06:33:09;2.03;;;1.60;;
16890;SDS011;8562;52.246;20.966;2023-05-21T06:35:35;5.83;;;1.83;;
16890;SDS011;8562;52.246;20.966;2023-05-21T06:38:01;3.63;;;1.70;;
16890;SDS011;8562;52.246;20.966;2023-05-21T06:40:27;3.50;;;1.67;;
16890;SDS011;8562;52.246;20.966;2023-05-21T06:42:55;3.63;;;2.10;;
16890;SDS011;8562;52.246;20.966;2023-05-21T06:45:39;3.70;;;1.43;;
16890;SDS011;8562;52.246;20.966;2023-05-21T06:48:25;3.30;;;1.87;;
16890;SDS011;8562;52.246;20.966;2023-05-21T06:50:50;2.00;;;1.50;;
16890;SDS011;8562;52.246;20.966;2023-05-21T06:53:16;1.60;;;1.47;;
16890;SDS011;8562;52.246;20.966;2023-05-21T06:55:41;2.77;;;1.93;;
16890;SDS011;8562;52.246;20.966;2023-05-21T06:58:17;2.17;;;2.00;;
16890;SDS011;8562;52.246;20.966;2023-05-21T07:00:42;3.63;;;1.57;;
16890;SDS011;8562;52.246;20.966;2023-05-21T07:03:08;1.93;;;1.40;;
16890;SDS011;8562;52.246;20.966;2023-05-21T07:05:34;3.50;;;1.87;;
16890;SDS011;8562;52.246;20.966;2023-05-21T07:07:59;1.73;;;1.47;;
16890;SDS011;8562;52.246;20.966;2023-05-21T07:10:25;2.23;;;1.43;;
16890;SDS011;8562;52.246;20.966;2023-05-21T07:12:50;2.13;;;1.77;;
16890;SDS011;8562;52.246;20.966;2023-05-21T07:15:16;1.90;;;1.60;;
16890;SDS011;8562;52.246;20.966;2023-05-21T07:17:42;1.50;;;1.40;;
16890;SDS011;8562;52.246;20.966;2023-05-21T07:20:07;2.13;;;1.47;;
16890;SDS011;8562;52.246;20.966;2023-05-21T07:22:37;3.30;;;1.50;;
16890;SDS011;8562;52.246;20.966;2023-05-21T07:25:02;1.40;;;1.30;;
16890;SDS011;8562;52.246;20.966;2023-05-21T07:27:28;2.90;;;1.73;;
16890;SDS011;8562;52.246;20.966;2023-05-21T07:29:54;2.50;;;1.53;;
16890;SDS011;8562;52.246;20.966;2023-05-21T07:32:20;1.40;;;1.30;;
16890;SDS011;8562;52.246;20.966;2023-05-21T07:34:46;4.73;;;1.80;;
16890;SDS011;8562;52.246;20.966;2023-05-21T07:37:11;3.10;;;1.57;;
16890;SDS011;8562;52.246;20.966;2023-05-21T07:39:38;2.03;;;1.57;;
16890;SDS011;8562;52.246;20.966;2023-05-21T07:42:04;2.40;;;1.60;;
16890;SDS011;8562;52.246;20.966;2023-05-21T07:44:30;4.40;;;1.87;;
16890;SDS011;8562;52.246;20.966;2023-05-21T07:46:56;2.50;;;1.70;;
16890;SDS011;8562;52.246;20.966;2023-05-21T07:49:22;1.60;;;1.43;;
16890;SDS011;8562;52.246;20.966;2023-05-21T07:51:48;2.03;;;1.20;;
16890;SDS011;8562;52.246;20.966;2023-05-21T07:54:14;5.53;;;1.80;;
16890;SDS011;8562;52.246;20.966;2023-05-21T07:56:40;2.43;;;1.67;;
16890;SDS011;8562;52.246;20.966;2023-05-21T07:59:07;2.33;;;1.20;;
16890;SDS011;8562;52.246;20.966;2023-05-21T08:01:34;4.57;;;1.40;;
16890;SDS011;8562;52.246;20.966;2023-05-21T08:04:01;1.40;;;1.10;;
16890;SDS011;8562;52.246;20.966;2023-05-21T08:06:30;2.00;;;1.80;;
16890;SDS011;8562;52.246;20.966;2023-05-21T08:08:55;1.67;;;1.40;;
16890;SDS011;8562;52.246;20.966;2023-05-21T08:11:22;2.17;;;1.43;;
16890;SDS011;8562;52.246;20.966;2023-05-21T08:13:47;2.40;;;1.43;;
16890;SDS011;8562;52.246;20.966;2023-05-21T08:16:14;1.87;;;1.43;;
16890;SDS011;8562;52.246;20.966;2023-05-21T08:18:40;1.30;;;1.20;;
16890;SDS011;8562;52.246;20.966;2023-05-21T08:21:05;2.43;;;1.43;;
16890;SDS011;8562;52.246;20.966;2023-05-21T08:23:31;1.63;;;1.40;;
16890;SDS011;8562;52.246;20.966;2023-05-21T08:25:58;1.67;;;1.37;;
16890;SDS011;8562;52.246;20.966;2023-05-21T08:28:23;1.70;;;1.20;;
16890;SDS011;8562;52.246;20.966;2023-05-21T08:30:50;2.07;;;1.23;;
16890;SDS011;8562;52.246;20.966;2023-05-21T08:33:15;1.50;;;1.40;;
16890;SDS011;8562;52.246;20.966;2023-05-21T08:35:42;4.00;;;1.30;;
16890;SDS011;8562;52.246;20.966;2023-05-21T08:38:17;1.20;;;1.10;;
16890;SDS011;8562;52.246;20.966;2023-05-21T08:40:52;2.00;;;1.13;;
16890;SDS011;8562;52.246;20.966;2023-05-21T08:43:18;1.97;;;1.23;;
16890;SDS011;8562;52.246;20.966;2023-05-21T08:45:46;1.27;;;1.10;;
16890;SDS011;8562;52.246;20.966;2023-05-21T08:48:15;1.13;;;1.03;;
16890;SDS011;8562;52.246;20.966;2023-05-21T08:50:41;1.23;;;1.10;;
16890;SDS011;8562;52.246;20.966;2023-05-21T08:53:13;2.13;;;1.40;;
16890;SDS011;8562;52.246;20.966;2023-05-21T08:55:38;1.20;;;1.10;;
16890;SDS011;8562;52.246;20.966;2023-05-21T08:58:06;1.57;;;1.30;;
16890;SDS011;8562;52.246;20.966;2023-05-21T09:00:32;2.83;;;1.10;;
16890;SDS011;8562;52.246;20.966;2023-05-21T09:02:59;1.70;;;1.20;;
16890;SDS011;8562;52.246;20.966;2023-05-21T09:05:26;1.47;;;1.30;;
16890;SDS011;8562;52.246;20.966;2023-05-21T09:10:29;3.40;;;1.40;;
16890;SDS011;8562;52.246;20.966;2023-05-21T09:12:55;1.27;;;1.00;;
16890;SDS011;8562;52.246;20.966;2023-05-21T09:15:21;1.30;;;0.90;;
16890;SDS011;8562;52.246;20.966;2023-05-21T09:17:47;1.60;;;1.27;;
16890;SDS011;8562;52.246;20.966;2023-05-21T09:20:33;1.80;;;1.10;;
16890;SDS011;8562;52.246;20.966;2023-05-21T09:23:04;1.87;;;1.30;;
16890;SDS011;8562;52.246;20.966;2023-05-21T09:25:31;1.83;;;1.27;;
16890;SDS011;8562;52.246;20.966;2023-05-21T09:28:02;1.50;;;1.20;;
16890;SDS011;8562;52.246;20.966;2023-05-21T09:30:27;2.77;;;1.40;;
16890;SDS011;8562;52.246;20.966;2023-05-21T09:32:54;2.33;;;1.37;;
16890;SDS011;8562;52.246;20.966;2023-05-21T09:35:20;3.87;;;1.37;;
16890;SDS011;8562;52.246;20.966;2023-05-21T09:37:47;1.40;;;1.30;;
16890;SDS011;8562;52.246;20.966;2023-05-21T09:40:16;1.60;;;1.20;;
16890;SDS011;8562;52.246;20.966;2023-05-21T09:42:47;4.30;;;1.40;;
16890;SDS011;8562;52.246;20.966;2023-05-21T09:45:23;5.30;;;2.50;;
16890;SDS011;8562;52.246;20.966;2023-05-21T09:47:50;5.43;;;1.60;;
16890;SDS011;8562;52.246;20.966;2023-05-21T09:50:17;1.13;;;0.97;;
16890;SDS011;8562;52.246;20.966;2023-05-21T09:52:43;1.90;;;1.13;;
16890;SDS011;8562;52.246;20.966;2023-05-21T09:55:12;1.40;;;1.30;;
16890;SDS011;8562;52.246;20.966;2023-05-21T09:57:44;1.60;;;1.27;;
16890;SDS011;8562;52.246;20.966;2023-05-21T10:00:23;2.73;;;1.60;;
16890;SDS011;8562;52.246;20.966;2023-05-21T10:02:49;2.07;;;1.50;;
16890;SDS011;8562;52.246;20.966;2023-05-21T10:05:17;1.43;;;1.20;;
16890;SDS011;8562;52.246;20.966;2023-05-21T10:07:46;2.07;;;1.27;;
16890;SDS011;8562;52.246;20.966;2023-05-21T10:10:13;1.47;;;1.37;;
16890;SDS011;8562;52.246;20.966;2023-05-21T10:12:40;1.83;;;1.20;;
16890;SDS011;8562;52.246;20.966;2023-05-21T10:15:08;1.53;;;1.10;;
16890;SDS011;8562;52.246;20.966;2023-05-21T10:17:35;4.40;;;1.33;;
16890;SDS011;8562;52.246;20.966;2023-05-21T10:20:01;3.63;;;1.50;;
16890;SDS011;8562;52.246;20.966;2023-05-21T10:22:26;8.10;;;1.63;;
16890;SDS011;8562;52.246;20.966;2023-05-21T10:24:52;2.83;;;1.57;;
16890;SDS011;8562;52.246;20.966;2023-05-21T10:27:18;1.53;;;1.40;;
16890;SDS011;8562;52.246;20.966;2023-05-21T10:29:44;2.07;;;1.90;;
16890;SDS011;8562;52.246;20.966;2023-05-21T10:32:14;1.10;;;1.00;;
16890;SDS011;8562;52.246;20.966;2023-05-21T10:34:39;2.03;;;1.50;;
16890;SDS011;8562;52.246;20.966;2023-05-21T10:37:06;2.63;;;1.40;;
16890;SDS011;8562;52.246;20.966;2023-05-21T10:39:32;6.10;;;1.50;;
16890;SDS011;8562;52.246;20.966;2023-05-21T10:42:01;1.60;;;1.37;;
16890;SDS011;8562;52.246;20.966;2023-05-21T10:44:33;1.60;;;1.30;;
16890;SDS011;8562;52.246;20.966;2023-05-21T10:47:21;5.13;;;1.30;;
16890;SDS011;8562;52.246;20.966;2023-05-21T10:49:57;2.37;;;1.47;;
16890;SDS011;8562;52.246;20.966;2023-05-21T10:52:43;1.50;;;1.40;;
16890;SDS011;8562;52.246;20.966;2023-05-21T10:55:19;1.20;;;1.10;;
16890;SDS011;8562;52.246;20.966;2023-05-21T11:00:31;2.60;;;1.73;;
16890;SDS011;8562;52.246;20.966;2023-05-21T11:02:57;2.30;;;1.70;;
16890;SDS011;8562;52.246;20.966;2023-05-21T11:05:38;2.23;;;1.43;;
16890;SDS011;8562;52.246;20.966;2023-05-21T11:10:51;2.67;;;1.33;;
16890;SDS011;8562;52.246;20.966;2023-05-21T11:13:16;1.87;;;1.50;;
16890;SDS011;8562;52.246;20.966;2023-05-21T11:18:21;1.57;;;1.33;;
16890;SDS011;8562;52.246;20.966;2023-05-21T11:20:49;3.57;;;1.60;;
16890;SDS011;8562;52.246;20.966;2023-05-21T11:23:15;2.30;;;1.27;;
16890;SDS011;8562;52.246;20.966;2023-05-21T11:25:40;4.03;;;1.50;;
16890;SDS011;8562;52.246;20.966;2023-05-21T11:28:05;2.33;;;1.43;;
16890;SDS011;8562;52.246;20.966;2023-05-21T11:30:33;3.43;;;1.33;;
16890;SDS011;8562;52.246;20.966;2023-05-21T11:38:13;3.77;;;1.10;;
16890;SDS011;8562;52.246;20.966;2023-05-21T11:40:48;4.83;;;1.27;;
16890;SDS011;8562;52.246;20.966;2023-05-21T11:43:14;2.20;;;1.40;;
16890;SDS011;8562;52.246;20.966;2023-05-21T11:45:39;4.13;;;1.77;;
16890;SDS011;8562;52.246;20.966;2023-05-21T11:48:11;1.50;;;1.40;;
16890;SDS011;8562;52.246;20.966;2023-05-21T11:50:37;1.87;;;1.40;;
16890;SDS011;8562;52.246;20.966;2023-05-21T11:53:03;2.20;;;1.50;;
16890;SDS011;8562;52.246;20.966;2023-05-21T11:55:28;1.93;;;1.60;;
16890;SDS011;8562;52.246;20.966;2023-05-21T11:57:54;1.70;;;1.57;;
16890;SDS011;8562;52.246;20.966;2023-05-21T12:00:19;1.93;;;0.90;;
16890;SDS011;8562;52.246;20.966;2023-05-21T12:02:51;1.93;;;1.40;;
16890;SDS011;8562;52.246;20.966;2023-05-21T12:05:17;2.60;;;1.23;;
16890;SDS011;8562;52.246;20.966;2023-05-21T12:07:44;4.00;;;1.63;;
16890;SDS011;8562;52.246;20.966;2023-05-21T12:10:10;3.23;;;1.57;;
16890;SDS011;8562;52.246;20.966;2023-05-21T12:12:36;1.63;;;1.30;;
16890;SDS011;8562;52.246;20.966;2023-05-21T12:15:01;2.63;;;1.20;;
16890;SDS011;8562;52.246;20.966;2023-05-21T12:17:27;3.93;;;1.33;;
16890;SDS011;8562;52.246;20.966;2023-05-21T12:19:53;2.20;;;1.30;;
16890;SDS011;8562;52.246;20.966;2023-05-21T12:22:19;3.93;;;1.50;;
16890;SDS011;8562;52.246;20.966;2023-05-21T12:24:44;3.50;;;1.30;;
16890;SDS011;8562;52.246;20.966;2023-05-21T12:27:10;1.60;;;1.30;;
16890;SDS011;8562;52.246;20.966;2023-05-21T12:29:40;2.30;;;1.40;;
16890;SDS011;8562;52.246;20.966;2023-05-21T12:32:07;3.33;;;1.40;;
16890;SDS011;8562;52.246;20.966;2023-05-21T12:35:06;3.17;;;1.63;;
16890;SDS011;8562;52.246;20.966;2023-05-21T12:37:28;2.30;;;1.30;;
16890;SDS011;8562;52.246;20.966;2023-05-21T12:40:00;3.23;;;1.10;;
16890;SDS011;8562;52.246;20.966;2023-05-21T12:42:26;1.53;;;1.00;;
16890;SDS011;8562;52.246;20.966;2023-05-21T12:44:52;2.27;;;1.37;;
16890;SDS011;8562;52.246;20.966;2023-05-21T12:47:17;2.70;;;1.37;;
16890;SDS011;8562;52.246;20.966;2023-05-21T12:49:43;1.40;;;0.83;;
16890;SDS011;8562;52.246;20.966;2023-05-21T12:52:10;3.67;;;1.30;;
16890;SDS011;8562;52.246;20.966;2023-05-21T12:54:36;1.90;;;1.30;;
16890;SDS011;8562;52.246;20.966;2023-05-21T12:57:20;1.80;;;1.50;;
16890;SDS011;8562;52.246;20.966;2023-05-21T12:59:50;1.40;;;1.10;;
16890;SDS011;8562;52.246;20.966;2023-05-21T13:02:17;3.17;;;1.07;;
16890;SDS011;8562;52.246;20.966;2023-05-21T13:04:43;1.83;;;1.27;;
16890;SDS011;8562;52.246;20.966;2023-05-21T13:07:08;1.33;;;1.20;;
16890;SDS011;8562;52.246;20.966;2023-05-21T13:09:33;1.80;;;0.90;;
16890;SDS011;8562;52.246;20.966;2023-05-21T13:11:59;1.80;;;1.40;;
16890;SDS011;8562;52.246;20.966;2023-05-21T13:14:24;4.57;;;1.60;;
16890;SDS011;8562;52.246;20.966;2023-05-21T13:16:49;1.97;;;1.13;;
16890;SDS011;8562;52.246;20.966;2023-05-21T13:19:14;1.10;;;1.00;;
16890;SDS011;8562;52.246;20.966;2023-05-21T13:21:40;1.53;;;1.30;;
16890;SDS011;8562;52.246;20.966;2023-05-21T13:24:05;2.93;;;1.30;;
16890;SDS011;8562;52.246;20.966;2023-05-21T13:26:31;1.47;;;1.23;;
16890;SDS011;8562;52.246;20.966;2023-05-21T13:28:56;2.93;;;1.40;;
16890;SDS011;8562;52.246;20.966;2023-05-21T13:31:22;2.30;;;1.30;;
16890;SDS011;8562;52.246;20.966;2023-05-21T13:33:47;2.30;;;1.40;;
16890;SDS011;8562;52.246;20.966;2023-05-21T13:36:12;2.20;;;1.53;;
16890;SDS011;8562;52.246;20.966;2023-05-21T13:38:38;1.87;;;1.23;;
16890;SDS011;8562;52.246;20.966;2023-05-21T13:41:03;1.20;;;1.10;;
16890;SDS011;8562;52.246;20.966;2023-05-21T13:43:28;2.60;;;1.13;;
16890;SDS011;8562;52.246;20.966;2023-05-21T13:45:53;3.07;;;1.20;;
16890;SDS011;8562;52.246;20.966;2023-05-21T13:48:19;2.60;;;1.53;;
16890;SDS011;8562;52.246;20.966;2023-05-21T13:50:44;1.57;;;1.23;;
16890;SDS011;8562;52.246;20.966;2023-05-21T13:53:10;5.07;;;1.10;;
16890;SDS011;8562;52.246;20.966;2023-05-21T13:55:35;1.20;;;1.03;;
16890;SDS011;8562;52.246;20.966;2023-05-21T13:58:00;1.10;;;1.00;;
16890;SDS011;8562;52.246;20.966;2023-05-21T14:00:25;2.03;;;1.60;;
16890;SDS011;8562;52.246;20.966;2023-05-21T14:02:51;1.47;;;1.23;;
16890;SDS011;8562;52.246;20.966;2023-05-21T14:05:16;1.30;;;1.20;;
16890;SDS011;8562;52.246;20.966;2023-05-21T14:07:42;3.03;;;1.13;;
16890;SDS011;8562;52.246;20.966;2023-05-21T14:10:07;1.10;;;1.00;;
16890;SDS011;8562;52.246;20.966;2023-05-21T14:12:33;1.30;;;0.93;;
16890;SDS011;8562;52.246;20.966;2023-05-21T14:14:58;1.20;;;1.10;;
16890;SDS011;8562;52.246;20.966;2023-05-21T14:17:23;3.40;;;1.13;;
16890;SDS011;8562;52.246;20.966;2023-05-21T14:19:49;2.03;;;1.30;;
16890;SDS011;8562;52.246;20.966;2023-05-21T14:22:14;1.10;;;1.00;;
16890;SDS011;8562;52.246;20.966;2023-05-21T14:24:39;2.20;;;1.10;;
16890;SDS011;8562;52.246;20.966;2023-05-21T14:27:05;1.77;;;1.20;;
16890;SDS011;8562;52.246;20.966;2023-05-21T14:29:30;2.87;;;1.40;;
16890;SDS011;8562;52.246;20.966;2023-05-21T14:31:57;2.07;;;1.50;;
16890;SDS011;8562;52.246;20.966;2023-05-21T14:34:22;1.93;;;1.57;;
16890;SDS011;8562;52.246;20.966;2023-05-21T14:36:47;2.93;;;1.17;;
16890;SDS011;8562;52.246;20.966;2023-05-21T14:39:13;1.43;;;0.90;;
16890;SDS011;8562;52.246;20.966;2023-05-21T14:41:38;1.53;;;1.43;;
16890;SDS011;8562;52.246;20.966;2023-05-21T14:44:03;2.47;;;1.13;;
16890;SDS011;8562;52.246;20.966;2023-05-21T14:46:29;1.43;;;1.23;;
16890;SDS011;8562;52.246;20.966;2023-05-21T14:48:54;1.30;;;1.20;;
16890;SDS011;8562;52.246;20.966;2023-05-21T14:51:23;1.80;;;1.40;;
16890;SDS011;8562;52.246;20.966;2023-05-21T14:53:48;3.60;;;1.10;;
16890;SDS011;8562;52.246;20.966;2023-05-21T14:56:13;1.93;;;1.60;;
16890;SDS011;8562;52.246;20.966;2023-05-21T14:58:39;2.07;;;1.37;;
16890;SDS011;8562;52.246;20.966;2023-05-21T15:01:04;1.80;;;1.60;;